sensor_id;sensor_type;location;lat;lon;timestamp;P1;durP1;ratioP1;P2;durP2;ratioP2
24585;SDS011;12743;52.262;6.172;2022-08-19T00:00:26;7.70;;;5.00;;
24585;SDS011;12743;52.262;6.172;2022-08-19T00:02:52;14.53;;;9.13;;
24585;SDS011;12743;52.262;6.172;2022-08-19T00:05:18;12.18;;;7.70;;
24585;SDS011;12743;52.262;6.172;2022-08-19T00:07:44;12.27;;;8.30;;
24585;SDS011;12743;52.262;6.172;2022-08-19T00:10:11;9.07;;;7.40;;
24585;SDS011;12743;52.262;6.172;2022-08-19T00:12:39;10.32;;;5.90;;
24585;SDS011;12743;52.262;6.172;2022-08-19T00:15:05;10.98;;;7.13;;
24585;SDS011;12743;52.262;6.172;2022-08-19T00:17:41;11.48;;;7.90;;
24585;SDS011;12743;52.262;6.172;2022-08-19T00:20:08;11.57;;;7.90;;
24585;SDS011;12743;52.262;6.172;2022-08-19T00:22:35;9.68;;;7.32;;
24585;SDS011;12743;52.262;6.172;2022-08-19T00:25:01;9.88;;;6.88;;
24585;SDS011;12743;52.262;6.172;2022-08-19T00:27:27;13.03;;;8.70;;
24585;SDS011;12743;52.262;6.172;2022-08-19T00:29:52;14.67;;;8.80;;
24585;SDS011;12743;52.262;6.172;2022-08-19T00:32:18;7.43;;;5.78;;
24585;SDS011;12743;52.262;6.172;2022-08-19T00:34:43;12.23;;;8.60;;
24585;SDS011;12743;52.262;6.172;2022-08-19T00:37:08;9.43;;;5.03;;
24585;SDS011;12743;52.262;6.172;2022-08-19T00:39:34;8.17;;;5.87;;
24585;SDS011;12743;52.262;6.172;2022-08-19T00:41:59;12.95;;;8.40;;
24585;SDS011;12743;52.262;6.172;2022-08-19T00:44:27;11.37;;;7.83;;
24585;SDS011;12743;52.262;6.172;2022-08-19T00:46:55;14.35;;;7.88;;
24585;SDS011;12743;52.262;6.172;2022-08-19T00:49:37;12.63;;;7.97;;
24585;SDS011;12743;52.262;6.172;2022-08-19T00:52:08;8.70;;;6.10;;
24585;SDS011;12743;52.262;6.172;2022-08-19T00:54:39;9.17;;;6.10;;
24585;SDS011;12743;52.262;6.172;2022-08-19T00:57:07;7.63;;;4.78;;
24585;SDS011;12743;52.262;6.172;2022-08-19T00:59:35;8.52;;;5.75;;
24585;SDS011;12743;52.262;6.172;2022-08-19T01:02:03;11.68;;;7.68;;
24585;SDS011;12743;52.262;6.172;2022-08-19T01:04:29;9.80;;;6.35;;
24585;SDS011;12743;52.262;6.172;2022-08-19T01:06:55;10.53;;;6.87;;
24585;SDS011;12743;52.262;6.172;2022-08-19T01:09:22;11.20;;;7.43;;
24585;SDS011;12743;52.262;6.172;2022-08-19T01:11:48;6.20;;;4.47;;
24585;SDS011;12743;52.262;6.172;2022-08-19T01:14:14;10.60;;;7.70;;
24585;SDS011;12743;52.262;6.172;2022-08-19T01:16:41;8.30;;;5.87;;
24585;SDS011;12743;52.262;6.172;2022-08-19T01:19:13;7.85;;;4.50;;
24585;SDS011;12743;52.262;6.172;2022-08-19T01:24:52;11.05;;;8.32;;
24585;SDS011;12743;52.262;6.172;2022-08-19T01:27:17;6.93;;;4.80;;
24585;SDS011;12743;52.262;6.172;2022-08-19T01:29:43;11.17;;;7.50;;
24585;SDS011;12743;52.262;6.172;2022-08-19T01:32:13;13.35;;;9.15;;
24585;SDS011;12743;52.262;6.172;2022-08-19T01:34:41;11.02;;;8.55;;
24585;SDS011;12743;52.262;6.172;2022-08-19T01:37:10;12.37;;;9.00;;
24585;SDS011;12743;52.262;6.172;2022-08-19T01:39:37;11.45;;;8.23;;
24585;SDS011;12743;52.262;6.172;2022-08-19T01:42:04;9.57;;;7.20;;
24585;SDS011;12743;52.262;6.172;2022-08-19T01:44:32;13.55;;;8.85;;
24585;SDS011;12743;52.262;6.172;2022-08-19T01:46:57;10.53;;;6.60;;
24585;SDS011;12743;52.262;6.172;2022-08-19T01:49:23;11.73;;;7.77;;
24585;SDS011;12743;52.262;6.172;2022-08-19T01:51:51;11.77;;;8.73;;
24585;SDS011;12743;52.262;6.172;2022-08-19T01:54:19;13.65;;;9.15;;
24585;SDS011;12743;52.262;6.172;2022-08-19T01:56:46;14.30;;;9.20;;
24585;SDS011;12743;52.262;6.172;2022-08-19T01:59:12;15.10;;;9.17;;
24585;SDS011;12743;52.262;6.172;2022-08-19T02:01:41;12.02;;;8.05;;
24585;SDS011;12743;52.262;6.172;2022-08-19T02:04:06;10.60;;;7.60;;
24585;SDS011;12743;52.262;6.172;2022-08-19T02:06:32;12.40;;;8.47;;
24585;SDS011;12743;52.262;6.172;2022-08-19T02:08:58;12.75;;;7.82;;
24585;SDS011;12743;52.262;6.172;2022-08-19T02:11:33;11.70;;;7.40;;
24585;SDS011;12743;52.262;6.172;2022-08-19T02:14:00;10.32;;;7.18;;
24585;SDS011;12743;52.262;6.172;2022-08-19T02:16:28;10.90;;;7.72;;
24585;SDS011;12743;52.262;6.172;2022-08-19T02:18:53;9.80;;;7.20;;
24585;SDS011;12743;52.262;6.172;2022-08-19T02:21:21;11.80;;;7.95;;
24585;SDS011;12743;52.262;6.172;2022-08-19T02:23:47;14.32;;;10.00;;
24585;SDS011;12743;52.262;6.172;2022-08-19T02:26:13;19.02;;;12.30;;
24585;SDS011;12743;52.262;6.172;2022-08-19T02:28:40;22.63;;;13.20;;
24585;SDS011;12743;52.262;6.172;2022-08-19T02:31:08;25.83;;;15.63;;
24585;SDS011;12743;52.262;6.172;2022-08-19T02:33:35;26.27;;;16.00;;
24585;SDS011;12743;52.262;6.172;2022-08-19T02:36:03;27.50;;;16.07;;
24585;SDS011;12743;52.262;6.172;2022-08-19T02:38:30;30.27;;;16.80;;
24585;SDS011;12743;52.262;6.172;2022-08-19T02:40:56;20.00;;;11.77;;
24585;SDS011;12743;52.262;6.172;2022-08-19T02:43:25;30.42;;;16.73;;
24585;SDS011;12743;52.262;6.172;2022-08-19T02:45:52;40.53;;;21.20;;
24585;SDS011;12743;52.262;6.172;2022-08-19T02:48:18;33.70;;;18.97;;
24585;SDS011;12743;52.262;6.172;2022-08-19T02:50:45;35.25;;;21.27;;
24585;SDS011;12743;52.262;6.172;2022-08-19T02:53:11;44.90;;;25.70;;
24585;SDS011;12743;52.262;6.172;2022-08-19T02:55:41;26.43;;;16.73;;
24585;SDS011;12743;52.262;6.172;2022-08-19T02:58:08;19.50;;;11.25;;
24585;SDS011;12743;52.262;6.172;2022-08-19T03:00:34;16.60;;;10.27;;
24585;SDS011;12743;52.262;6.172;2022-08-19T03:02:59;17.50;;;11.67;;
24585;SDS011;12743;52.262;6.172;2022-08-19T03:05:25;16.17;;;10.43;;
24585;SDS011;12743;52.262;6.172;2022-08-19T03:07:51;19.95;;;12.02;;
24585;SDS011;12743;52.262;6.172;2022-08-19T03:10:17;15.20;;;9.50;;
24585;SDS011;12743;52.262;6.172;2022-08-19T03:12:43;17.60;;;10.60;;
24585;SDS011;12743;52.262;6.172;2022-08-19T03:15:09;16.50;;;11.10;;
24585;SDS011;12743;52.262;6.172;2022-08-19T03:17:35;17.20;;;11.18;;
24585;SDS011;12743;52.262;6.172;2022-08-19T03:20:02;16.57;;;10.87;;
24585;SDS011;12743;52.262;6.172;2022-08-19T03:22:28;15.68;;;10.63;;
24585;SDS011;12743;52.262;6.172;2022-08-19T03:24:54;17.33;;;11.50;;
24585;SDS011;12743;52.262;6.172;2022-08-19T03:27:20;15.47;;;10.90;;
24585;SDS011;12743;52.262;6.172;2022-08-19T03:29:46;15.45;;;10.40;;
24585;SDS011;12743;52.262;6.172;2022-08-19T03:32:11;16.87;;;11.97;;
24585;SDS011;12743;52.262;6.172;2022-08-19T03:34:37;17.27;;;11.88;;
24585;SDS011;12743;52.262;6.172;2022-08-19T03:37:04;18.10;;;11.33;;
24585;SDS011;12743;52.262;6.172;2022-08-19T03:39:32;14.95;;;11.35;;
24585;SDS011;12743;52.262;6.172;2022-08-19T03:41:58;15.57;;;9.77;;
24585;SDS011;12743;52.262;6.172;2022-08-19T03:44:27;14.45;;;9.23;;
24585;SDS011;12743;52.262;6.172;2022-08-19T03:46:55;14.98;;;10.05;;
24585;SDS011;12743;52.262;6.172;2022-08-19T03:49:23;13.57;;;9.40;;
24585;SDS011;12743;52.262;6.172;2022-08-19T03:51:51;12.60;;;8.75;;
24585;SDS011;12743;52.262;6.172;2022-08-19T03:54:18;12.88;;;9.13;;
24585;SDS011;12743;52.262;6.172;2022-08-19T03:56:45;12.18;;;8.10;;
24585;SDS011;12743;52.262;6.172;2022-08-19T03:59:14;12.30;;;8.53;;
24585;SDS011;12743;52.262;6.172;2022-08-19T04:01:42;13.35;;;8.50;;
24585;SDS011;12743;52.262;6.172;2022-08-19T04:04:07;12.65;;;8.52;;
24585;SDS011;12743;52.262;6.172;2022-08-19T04:06:34;12.67;;;8.43;;
24585;SDS011;12743;52.262;6.172;2022-08-19T04:09:02;13.23;;;8.77;;
24585;SDS011;12743;52.262;6.172;2022-08-19T04:11:37;12.83;;;9.00;;
24585;SDS011;12743;52.262;6.172;2022-08-19T04:14:07;11.10;;;7.68;;
24585;SDS011;12743;52.262;6.172;2022-08-19T04:16:34;13.23;;;8.05;;
24585;SDS011;12743;52.262;6.172;2022-08-19T04:19:00;12.17;;;8.30;;
24585;SDS011;12743;52.262;6.172;2022-08-19T04:21:28;12.95;;;8.52;;
24585;SDS011;12743;52.262;6.172;2022-08-19T04:23:54;11.70;;;7.88;;
24585;SDS011;12743;52.262;6.172;2022-08-19T04:26:21;10.77;;;7.13;;
24585;SDS011;12743;52.262;6.172;2022-08-19T04:28:51;9.63;;;6.38;;
24585;SDS011;12743;52.262;6.172;2022-08-19T04:31:18;12.23;;;8.47;;
24585;SDS011;12743;52.262;6.172;2022-08-19T04:33:45;12.85;;;8.50;;
24585;SDS011;12743;52.262;6.172;2022-08-19T04:36:19;11.75;;;8.05;;
24585;SDS011;12743;52.262;6.172;2022-08-19T04:38:52;13.23;;;8.20;;
24585;SDS011;12743;52.262;6.172;2022-08-19T04:41:23;16.08;;;9.75;;
24585;SDS011;12743;52.262;6.172;2022-08-19T04:44:08;14.15;;;8.52;;
24585;SDS011;12743;52.262;6.172;2022-08-19T04:46:34;12.35;;;8.07;;
24585;SDS011;12743;52.262;6.172;2022-08-19T04:49:00;13.37;;;9.03;;
24585;SDS011;12743;52.262;6.172;2022-08-19T04:51:27;13.63;;;8.00;;
24585;SDS011;12743;52.262;6.172;2022-08-19T04:53:55;11.57;;;8.15;;
24585;SDS011;12743;52.262;6.172;2022-08-19T04:56:21;13.55;;;7.22;;
24585;SDS011;12743;52.262;6.172;2022-08-19T04:58:47;12.53;;;8.60;;
24585;SDS011;12743;52.262;6.172;2022-08-19T05:01:21;15.05;;;8.35;;
24585;SDS011;12743;52.262;6.172;2022-08-19T05:03:48;10.75;;;7.80;;
24585;SDS011;12743;52.262;6.172;2022-08-19T05:06:15;12.15;;;8.20;;
24585;SDS011;12743;52.262;6.172;2022-08-19T05:08:42;11.73;;;8.05;;
24585;SDS011;12743;52.262;6.172;2022-08-19T05:11:10;12.33;;;8.03;;
24585;SDS011;12743;52.262;6.172;2022-08-19T05:13:37;11.63;;;7.55;;
24585;SDS011;12743;52.262;6.172;2022-08-19T05:16:03;12.48;;;8.57;;
24585;SDS011;12743;52.262;6.172;2022-08-19T05:18:28;15.13;;;8.63;;
24585;SDS011;12743;52.262;6.172;2022-08-19T05:21:13;11.48;;;8.38;;
24585;SDS011;12743;52.262;6.172;2022-08-19T05:23:59;13.07;;;8.43;;
24585;SDS011;12743;52.262;6.172;2022-08-19T05:26:25;11.27;;;7.90;;
24585;SDS011;12743;52.262;6.172;2022-08-19T05:28:53;9.40;;;6.05;;
24585;SDS011;12743;52.262;6.172;2022-08-19T05:31:20;10.73;;;7.60;;
24585;SDS011;12743;52.262;6.172;2022-08-19T05:33:46;9.00;;;5.53;;
24585;SDS011;12743;52.262;6.172;2022-08-19T05:36:11;11.90;;;7.97;;
24585;SDS011;12743;52.262;6.172;2022-08-19T05:38:37;11.40;;;6.97;;
24585;SDS011;12743;52.262;6.172;2022-08-19T05:41:07;14.90;;;9.17;;
24585;SDS011;12743;52.262;6.172;2022-08-19T05:43:33;20.83;;;14.27;;
24585;SDS011;12743;52.262;6.172;2022-08-19T05:45:59;19.73;;;14.77;;
24585;SDS011;12743;52.262;6.172;2022-08-19T05:48:24;20.60;;;15.10;;
24585;SDS011;12743;52.262;6.172;2022-08-19T05:50:50;23.00;;;14.10;;
24585;SDS011;12743;52.262;6.172;2022-08-19T05:53:16;13.77;;;9.17;;
24585;SDS011;12743;52.262;6.172;2022-08-19T05:55:42;21.92;;;12.95;;
24585;SDS011;12743;52.262;6.172;2022-08-19T05:58:07;21.57;;;15.47;;
24585;SDS011;12743;52.262;6.172;2022-08-19T06:00:33;27.85;;;17.35;;
24585;SDS011;12743;52.262;6.172;2022-08-19T06:03:00;17.38;;;12.38;;
24585;SDS011;12743;52.262;6.172;2022-08-19T06:05:28;21.87;;;15.37;;
24585;SDS011;12743;52.262;6.172;2022-08-19T06:07:54;22.92;;;16.08;;
24585;SDS011;12743;52.262;6.172;2022-08-19T06:10:20;22.77;;;13.20;;
24585;SDS011;12743;52.262;6.172;2022-08-19T06:12:46;24.20;;;16.90;;
24585;SDS011;12743;52.262;6.172;2022-08-19T06:15:13;22.67;;;14.90;;
24585;SDS011;12743;52.262;6.172;2022-08-19T06:17:39;16.52;;;11.70;;
24585;SDS011;12743;52.262;6.172;2022-08-19T06:20:07;18.63;;;13.25;;
24585;SDS011;12743;52.262;6.172;2022-08-19T06:22:43;18.50;;;13.03;;
24585;SDS011;12743;52.262;6.172;2022-08-19T06:25:11;24.75;;;16.42;;
24585;SDS011;12743;52.262;6.172;2022-08-19T06:27:38;24.00;;;16.85;;
24585;SDS011;12743;52.262;6.172;2022-08-19T06:30:05;24.48;;;15.77;;
24585;SDS011;12743;52.262;6.172;2022-08-19T06:32:31;23.17;;;16.02;;
24585;SDS011;12743;52.262;6.172;2022-08-19T06:34:56;20.70;;;15.07;;
24585;SDS011;12743;52.262;6.172;2022-08-19T06:37:22;12.17;;;8.83;;
24585;SDS011;12743;52.262;6.172;2022-08-19T06:39:47;22.17;;;15.13;;
24585;SDS011;12743;52.262;6.172;2022-08-19T06:42:14;20.17;;;15.00;;
24585;SDS011;12743;52.262;6.172;2022-08-19T06:44:44;19.13;;;13.82;;
24585;SDS011;12743;52.262;6.172;2022-08-19T06:47:13;21.98;;;14.88;;
24585;SDS011;12743;52.262;6.172;2022-08-19T06:49:40;23.83;;;16.53;;
24585;SDS011;12743;52.262;6.172;2022-08-19T06:52:06;20.98;;;14.93;;
24585;SDS011;12743;52.262;6.172;2022-08-19T06:54:31;22.23;;;15.07;;
24585;SDS011;12743;52.262;6.172;2022-08-19T06:56:58;21.77;;;15.77;;
24585;SDS011;12743;52.262;6.172;2022-08-19T06:59:27;21.77;;;15.82;;
24585;SDS011;12743;52.262;6.172;2022-08-19T07:01:56;22.35;;;15.57;;
24585;SDS011;12743;52.262;6.172;2022-08-19T07:04:26;22.30;;;15.93;;
24585;SDS011;12743;52.262;6.172;2022-08-19T07:07:00;24.88;;;17.27;;
24585;SDS011;12743;52.262;6.172;2022-08-19T07:09:28;25.25;;;16.77;;
24585;SDS011;12743;52.262;6.172;2022-08-19T07:11:54;22.38;;;15.80;;
24585;SDS011;12743;52.262;6.172;2022-08-19T07:14:22;25.33;;;17.05;;
24585;SDS011;12743;52.262;6.172;2022-08-19T07:16:50;24.07;;;15.07;;
24585;SDS011;12743;52.262;6.172;2022-08-19T07:19:17;27.05;;;17.77;;
24585;SDS011;12743;52.262;6.172;2022-08-19T07:21:43;25.05;;;17.45;;
24585;SDS011;12743;52.262;6.172;2022-08-19T07:24:09;18.03;;;13.60;;
24585;SDS011;12743;52.262;6.172;2022-08-19T07:26:38;25.48;;;16.75;;
24585;SDS011;12743;52.262;6.172;2022-08-19T07:29:06;16.60;;;11.20;;
24585;SDS011;12743;52.262;6.172;2022-08-19T07:31:32;21.90;;;14.65;;
24585;SDS011;12743;52.262;6.172;2022-08-19T07:34:02;20.10;;;14.07;;
24585;SDS011;12743;52.262;6.172;2022-08-19T07:36:31;21.45;;;15.18;;
24585;SDS011;12743;52.262;6.172;2022-08-19T07:38:58;23.52;;;16.02;;
24585;SDS011;12743;52.262;6.172;2022-08-19T07:41:26;23.00;;;15.63;;
24585;SDS011;12743;52.262;6.172;2022-08-19T07:43:55;21.27;;;14.18;;
24585;SDS011;12743;52.262;6.172;2022-08-19T07:46:21;22.10;;;15.27;;
24585;SDS011;12743;52.262;6.172;2022-08-19T07:48:47;24.57;;;15.73;;
24585;SDS011;12743;52.262;6.172;2022-08-19T07:51:16;23.98;;;17.08;;
24585;SDS011;12743;52.262;6.172;2022-08-19T07:53:43;24.40;;;16.85;;
24585;SDS011;12743;52.262;6.172;2022-08-19T07:56:11;21.17;;;15.52;;
24585;SDS011;12743;52.262;6.172;2022-08-19T07:58:41;28.57;;;17.07;;
24585;SDS011;12743;52.262;6.172;2022-08-19T08:01:09;20.92;;;14.43;;
24585;SDS011;12743;52.262;6.172;2022-08-19T08:03:37;21.85;;;15.82;;
24585;SDS011;12743;52.262;6.172;2022-08-19T08:06:21;23.42;;;15.70;;
24585;SDS011;12743;52.262;6.172;2022-08-19T08:09:06;21.63;;;15.57;;
24585;SDS011;12743;52.262;6.172;2022-08-19T08:11:39;24.47;;;16.20;;
24585;SDS011;12743;52.262;6.172;2022-08-19T08:14:33;20.60;;;14.00;;
24585;SDS011;12743;52.262;6.172;2022-08-19T08:17:04;18.70;;;13.18;;
24585;SDS011;12743;52.262;6.172;2022-08-19T08:19:30;22.00;;;15.25;;
24585;SDS011;12743;52.262;6.172;2022-08-19T08:21:57;21.37;;;14.17;;
24585;SDS011;12743;52.262;6.172;2022-08-19T08:24:24;20.70;;;14.60;;
24585;SDS011;12743;52.262;6.172;2022-08-19T08:26:51;20.73;;;14.25;;
24585;SDS011;12743;52.262;6.172;2022-08-19T08:29:16;22.03;;;14.70;;
24585;SDS011;12743;52.262;6.172;2022-08-19T08:31:44;26.52;;;14.43;;
24585;SDS011;12743;52.262;6.172;2022-08-19T08:34:11;20.87;;;13.30;;
24585;SDS011;12743;52.262;6.172;2022-08-19T08:36:37;21.73;;;14.50;;
24585;SDS011;12743;52.262;6.172;2022-08-19T08:39:08;23.83;;;15.40;;
24585;SDS011;12743;52.262;6.172;2022-08-19T08:41:58;21.88;;;14.93;;
24585;SDS011;12743;52.262;6.172;2022-08-19T08:44:53;20.60;;;14.07;;
24585;SDS011;12743;52.262;6.172;2022-08-19T08:47:34;18.90;;;12.40;;
24585;SDS011;12743;52.262;6.172;2022-08-19T08:50:04;17.95;;;12.50;;
24585;SDS011;12743;52.262;6.172;2022-08-19T08:52:33;21.02;;;14.52;;
24585;SDS011;12743;52.262;6.172;2022-08-19T08:55:07;23.23;;;16.33;;
24585;SDS011;12743;52.262;6.172;2022-08-19T08:57:37;26.80;;;16.48;;
24585;SDS011;12743;52.262;6.172;2022-08-19T09:00:07;28.83;;;19.20;;
24585;SDS011;12743;52.262;6.172;2022-08-19T09:02:37;24.73;;;16.15;;
24585;SDS011;12743;52.262;6.172;2022-08-19T09:05:03;23.33;;;16.83;;
24585;SDS011;12743;52.262;6.172;2022-08-19T09:15:22;23.77;;;16.47;;
24585;SDS011;12743;52.262;6.172;2022-08-19T09:17:58;23.67;;;17.48;;
24585;SDS011;12743;52.262;6.172;2022-08-19T09:20:24;23.38;;;16.85;;
24585;SDS011;12743;52.262;6.172;2022-08-19T09:22:50;20.13;;;14.67;;
24585;SDS011;12743;52.262;6.172;2022-08-19T09:25:17;20.43;;;13.97;;
24585;SDS011;12743;52.262;6.172;2022-08-19T09:27:46;20.73;;;13.23;;
24585;SDS011;12743;52.262;6.172;2022-08-19T09:30:17;19.63;;;13.13;;
24585;SDS011;12743;52.262;6.172;2022-08-19T09:32:46;15.07;;;10.60;;
24585;SDS011;12743;52.262;6.172;2022-08-19T09:35:12;16.85;;;11.15;;
24585;SDS011;12743;52.262;6.172;2022-08-19T09:37:38;15.87;;;11.17;;
24585;SDS011;12743;52.262;6.172;2022-08-19T09:40:03;19.73;;;15.10;;
24585;SDS011;12743;52.262;6.172;2022-08-19T09:42:30;17.77;;;11.73;;
24585;SDS011;12743;52.262;6.172;2022-08-19T09:44:55;20.60;;;14.83;;
24585;SDS011;12743;52.262;6.172;2022-08-19T09:47:20;18.87;;;14.07;;
24585;SDS011;12743;52.262;6.172;2022-08-19T09:49:46;19.30;;;13.10;;
24585;SDS011;12743;52.262;6.172;2022-08-19T09:52:13;20.50;;;14.00;;
24585;SDS011;12743;52.262;6.172;2022-08-19T09:54:41;20.52;;;15.07;;
24585;SDS011;12743;52.262;6.172;2022-08-19T09:57:06;19.40;;;13.47;;
24585;SDS011;12743;52.262;6.172;2022-08-19T09:59:32;23.87;;;16.47;;
24585;SDS011;12743;52.262;6.172;2022-08-19T10:01:57;24.35;;;17.98;;
24585;SDS011;12743;52.262;6.172;2022-08-19T10:04:23;21.57;;;15.87;;
24585;SDS011;12743;52.262;6.172;2022-08-19T10:07:08;24.85;;;16.05;;
24585;SDS011;12743;52.262;6.172;2022-08-19T10:09:33;21.87;;;15.37;;
24585;SDS011;12743;52.262;6.172;2022-08-19T10:11:59;22.43;;;15.63;;
24585;SDS011;12743;52.262;6.172;2022-08-19T10:14:26;24.48;;;15.23;;
24585;SDS011;12743;52.262;6.172;2022-08-19T10:16:52;19.90;;;13.30;;
24585;SDS011;12743;52.262;6.172;2022-08-19T10:19:17;18.53;;;12.33;;
24585;SDS011;12743;52.262;6.172;2022-08-19T10:21:45;20.23;;;14.25;;
24585;SDS011;12743;52.262;6.172;2022-08-19T10:24:10;18.80;;;13.37;;
24585;SDS011;12743;52.262;6.172;2022-08-19T10:26:36;21.33;;;14.50;;
24585;SDS011;12743;52.262;6.172;2022-08-19T10:29:04;22.48;;;14.65;;
24585;SDS011;12743;52.262;6.172;2022-08-19T10:31:31;20.55;;;14.20;;
24585;SDS011;12743;52.262;6.172;2022-08-19T10:33:57;25.70;;;15.73;;
24585;SDS011;12743;52.262;6.172;2022-08-19T10:36:28;25.27;;;17.80;;
24585;SDS011;12743;52.262;6.172;2022-08-19T10:38:56;24.87;;;16.43;;
24585;SDS011;12743;52.262;6.172;2022-08-19T10:41:33;24.33;;;16.42;;
24585;SDS011;12743;52.262;6.172;2022-08-19T10:44:02;23.33;;;15.70;;
24585;SDS011;12743;52.262;6.172;2022-08-19T10:46:30;24.55;;;15.25;;
24585;SDS011;12743;52.262;6.172;2022-08-19T10:48:57;19.52;;;13.30;;
24585;SDS011;12743;52.262;6.172;2022-08-19T10:51:23;17.37;;;12.33;;
24585;SDS011;12743;52.262;6.172;2022-08-19T10:54:07;21.95;;;14.27;;
24585;SDS011;12743;52.262;6.172;2022-08-19T10:56:33;18.43;;;13.03;;
24585;SDS011;12743;52.262;6.172;2022-08-19T10:59:18;20.73;;;14.55;;
24585;SDS011;12743;52.262;6.172;2022-08-19T11:01:45;19.83;;;13.43;;
24585;SDS011;12743;52.262;6.172;2022-08-19T11:04:12;18.58;;;13.02;;
24585;SDS011;12743;52.262;6.172;2022-08-19T11:06:42;16.90;;;11.30;;
24585;SDS011;12743;52.262;6.172;2022-08-19T11:09:10;20.20;;;13.60;;
24585;SDS011;12743;52.262;6.172;2022-08-19T11:11:36;21.73;;;14.48;;
24585;SDS011;12743;52.262;6.172;2022-08-19T11:14:09;19.27;;;12.23;;
24585;SDS011;12743;52.262;6.172;2022-08-19T11:16:37;19.10;;;13.38;;
24585;SDS011;12743;52.262;6.172;2022-08-19T11:19:04;18.60;;;12.77;;
24585;SDS011;12743;52.262;6.172;2022-08-19T11:21:33;18.63;;;12.77;;
24585;SDS011;12743;52.262;6.172;2022-08-19T11:24:01;20.27;;;12.55;;
24585;SDS011;12743;52.262;6.172;2022-08-19T11:26:38;14.18;;;9.60;;
24585;SDS011;12743;52.262;6.172;2022-08-19T11:29:05;12.55;;;8.93;;
24585;SDS011;12743;52.262;6.172;2022-08-19T11:31:36;15.40;;;9.77;;
24585;SDS011;12743;52.262;6.172;2022-08-19T11:34:05;14.03;;;9.60;;
24585;SDS011;12743;52.262;6.172;2022-08-19T11:36:32;13.95;;;9.70;;
24585;SDS011;12743;52.262;6.172;2022-08-19T11:38:58;10.23;;;7.05;;
24585;SDS011;12743;52.262;6.172;2022-08-19T11:41:24;12.23;;;7.43;;
24585;SDS011;12743;52.262;6.172;2022-08-19T11:43:50;12.75;;;7.15;;
24585;SDS011;12743;52.262;6.172;2022-08-19T11:46:18;10.27;;;7.78;;
24585;SDS011;12743;52.262;6.172;2022-08-19T11:48:44;13.47;;;7.20;;
24585;SDS011;12743;52.262;6.172;2022-08-19T11:51:11;13.10;;;8.77;;
24585;SDS011;12743;52.262;6.172;2022-08-19T11:53:38;11.85;;;8.15;;
24585;SDS011;12743;52.262;6.172;2022-08-19T11:56:04;13.77;;;8.70;;
24585;SDS011;12743;52.262;6.172;2022-08-19T11:58:31;13.67;;;8.83;;
24585;SDS011;12743;52.262;6.172;2022-08-19T12:00:57;12.55;;;8.70;;
24585;SDS011;12743;52.262;6.172;2022-08-19T12:03:23;12.00;;;8.17;;
24585;SDS011;12743;52.262;6.172;2022-08-19T12:05:49;13.40;;;9.55;;
24585;SDS011;12743;52.262;6.172;2022-08-19T12:08:15;17.02;;;8.85;;
24585;SDS011;12743;52.262;6.172;2022-08-19T12:10:41;16.48;;;10.88;;
24585;SDS011;12743;52.262;6.172;2022-08-19T12:13:07;13.77;;;9.77;;
24585;SDS011;12743;52.262;6.172;2022-08-19T12:15:37;14.13;;;8.87;;
24585;SDS011;12743;52.262;6.172;2022-08-19T12:18:05;13.38;;;9.68;;
24585;SDS011;12743;52.262;6.172;2022-08-19T12:20:34;12.27;;;9.45;;
24585;SDS011;12743;52.262;6.172;2022-08-19T12:23:00;10.45;;;7.65;;
24585;SDS011;12743;52.262;6.172;2022-08-19T12:25:26;12.80;;;7.80;;
24585;SDS011;12743;52.262;6.172;2022-08-19T12:27:51;11.33;;;6.70;;
24585;SDS011;12743;52.262;6.172;2022-08-19T12:30:17;10.77;;;7.22;;
24585;SDS011;12743;52.262;6.172;2022-08-19T12:32:42;11.60;;;7.30;;
24585;SDS011;12743;52.262;6.172;2022-08-19T12:35:08;9.00;;;6.43;;
24585;SDS011;12743;52.262;6.172;2022-08-19T12:37:36;10.20;;;6.88;;
24585;SDS011;12743;52.262;6.172;2022-08-19T12:40:02;8.88;;;6.18;;
24585;SDS011;12743;52.262;6.172;2022-08-19T12:42:28;10.37;;;7.60;;
24585;SDS011;12743;52.262;6.172;2022-08-19T12:44:55;9.95;;;6.57;;
24585;SDS011;12743;52.262;6.172;2022-08-19T12:47:21;10.27;;;7.90;;
24585;SDS011;12743;52.262;6.172;2022-08-19T12:49:46;10.93;;;7.67;;
24585;SDS011;12743;52.262;6.172;2022-08-19T12:52:13;12.95;;;7.97;;
24585;SDS011;12743;52.262;6.172;2022-08-19T12:54:42;11.60;;;9.00;;
24585;SDS011;12743;52.262;6.172;2022-08-19T12:57:08;13.37;;;8.67;;
24585;SDS011;12743;52.262;6.172;2022-08-19T12:59:35;12.35;;;9.10;;
24585;SDS011;12743;52.262;6.172;2022-08-19T13:02:02;13.73;;;8.88;;
24585;SDS011;12743;52.262;6.172;2022-08-19T13:04:32;13.70;;;9.57;;
24585;SDS011;12743;52.262;6.172;2022-08-19T13:07:00;14.43;;;7.78;;
24585;SDS011;12743;52.262;6.172;2022-08-19T13:09:25;10.90;;;7.53;;
24585;SDS011;12743;52.262;6.172;2022-08-19T13:11:51;11.63;;;7.30;;
24585;SDS011;12743;52.262;6.172;2022-08-19T13:14:16;11.10;;;7.90;;
24585;SDS011;12743;52.262;6.172;2022-08-19T13:16:42;11.13;;;7.65;;
24585;SDS011;12743;52.262;6.172;2022-08-19T13:19:07;13.33;;;7.80;;
24585;SDS011;12743;52.262;6.172;2022-08-19T13:21:33;8.50;;;5.93;;
24585;SDS011;12743;52.262;6.172;2022-08-19T13:23:58;9.50;;;6.90;;
24585;SDS011;12743;52.262;6.172;2022-08-19T13:26:23;10.60;;;7.80;;
24585;SDS011;12743;52.262;6.172;2022-08-19T13:28:49;11.30;;;8.33;;
24585;SDS011;12743;52.262;6.172;2022-08-19T13:31:34;13.35;;;7.82;;
24585;SDS011;12743;52.262;6.172;2022-08-19T13:34:25;9.40;;;6.50;;
24585;SDS011;12743;52.262;6.172;2022-08-19T13:36:53;8.65;;;6.10;;
24585;SDS011;12743;52.262;6.172;2022-08-19T13:39:19;12.17;;;5.80;;
24585;SDS011;12743;52.262;6.172;2022-08-19T13:41:45;7.65;;;5.72;;
24585;SDS011;12743;52.262;6.172;2022-08-19T13:44:15;8.63;;;6.05;;
24585;SDS011;12743;52.262;6.172;2022-08-19T13:46:43;8.73;;;5.40;;
24585;SDS011;12743;52.262;6.172;2022-08-19T13:49:09;8.52;;;5.47;;
24585;SDS011;12743;52.262;6.172;2022-08-19T13:51:35;8.85;;;5.38;;
24585;SDS011;12743;52.262;6.172;2022-08-19T13:54:04;9.00;;;6.80;;
24585;SDS011;12743;52.262;6.172;2022-08-19T13:56:29;8.27;;;6.67;;
24585;SDS011;12743;52.262;6.172;2022-08-19T13:58:55;8.63;;;5.73;;
24585;SDS011;12743;52.262;6.172;2022-08-19T14:01:21;10.38;;;6.55;;
24585;SDS011;12743;52.262;6.172;2022-08-19T14:03:47;9.70;;;6.20;;
24585;SDS011;12743;52.262;6.172;2022-08-19T14:06:12;10.73;;;6.72;;
24585;SDS011;12743;52.262;6.172;2022-08-19T14:08:38;8.63;;;6.47;;
24585;SDS011;12743;52.262;6.172;2022-08-19T14:11:06;8.90;;;6.35;;
24585;SDS011;12743;52.262;6.172;2022-08-19T14:13:32;9.07;;;5.80;;
24585;SDS011;12743;52.262;6.172;2022-08-19T14:15:58;9.50;;;6.35;;
24585;SDS011;12743;52.262;6.172;2022-08-19T14:18:24;9.32;;;7.15;;
24585;SDS011;12743;52.262;6.172;2022-08-19T14:20:50;15.13;;;11.83;;
24585;SDS011;12743;52.262;6.172;2022-08-19T14:23:16;15.75;;;11.77;;
24585;SDS011;12743;52.262;6.172;2022-08-19T14:25:41;17.13;;;12.53;;
24585;SDS011;12743;52.262;6.172;2022-08-19T14:28:07;15.27;;;11.90;;
24585;SDS011;12743;52.262;6.172;2022-08-19T14:30:33;21.42;;;15.50;;
24585;SDS011;12743;52.262;6.172;2022-08-19T14:33:02;21.67;;;15.80;;
24585;SDS011;12743;52.262;6.172;2022-08-19T14:35:30;17.50;;;13.07;;
24585;SDS011;12743;52.262;6.172;2022-08-19T14:38:00;22.52;;;17.13;;
24585;SDS011;12743;52.262;6.172;2022-08-19T14:40:28;24.70;;;15.07;;
24585;SDS011;12743;52.262;6.172;2022-08-19T14:42:55;17.60;;;14.48;;